sensor_id;sensor_type;location;lat;lon;timestamp;P1;durP1;ratioP1;P2;durP2;ratioP2
12120;SDS011;6124;59.460;17.908;2023-04-01T00:02:16;4.43;;;2.07;;
12120;SDS011;6124;59.460;17.908;2023-04-01T00:04:43;4.27;;;1.80;;
12120;SDS011;6124;59.460;17.908;2023-04-01T00:07:11;3.67;;;1.60;;
12120;SDS011;6124;59.460;17.908;2023-04-01T00:09:38;3.37;;;1.53;;
12120;SDS011;6124;59.460;17.908;2023-04-01T00:12:07;4.07;;;1.87;;
12120;SDS011;6124;59.460;17.908;2023-04-01T00:14:34;3.70;;;1.90;;
12120;SDS011;6124;59.460;17.908;2023-04-01T00:17:02;2.93;;;1.63;;
12120;SDS011;6124;59.460;17.908;2023-04-01T00:19:29;2.67;;;1.63;;
12120;SDS011;6124;59.460;17.908;2023-04-01T00:21:57;2.67;;;1.60;;
12120;SDS011;6124;59.460;17.908;2023-04-01T00:24:25;2.07;;;1.60;;
12120;SDS011;6124;59.460;17.908;2023-04-01T00:26:52;2.80;;;1.90;;
12120;SDS011;6124;59.460;17.908;2023-04-01T00:29:21;5.43;;;1.70;;
12120;SDS011;6124;59.460;17.908;2023-04-01T00:31:54;2.13;;;1.47;;
12120;SDS011;6124;59.460;17.908;2023-04-01T00:34:22;4.27;;;1.80;;
12120;SDS011;6124;59.460;17.908;2023-04-01T00:36:49;2.90;;;1.77;;
12120;SDS011;6124;59.460;17.908;2023-04-01T00:39:17;2.80;;;1.70;;
12120;SDS011;6124;59.460;17.908;2023-04-01T00:41:44;3.27;;;1.70;;
12120;SDS011;6124;59.460;17.908;2023-04-01T00:44:14;5.00;;;1.90;;
12120;SDS011;6124;59.460;17.908;2023-04-01T00:46:44;6.37;;;1.80;;
12120;SDS011;6124;59.460;17.908;2023-04-01T00:49:12;2.87;;;1.57;;
12120;SDS011;6124;59.460;17.908;2023-04-01T00:51:40;3.30;;;2.10;;
12120;SDS011;6124;59.460;17.908;2023-04-01T00:54:08;4.97;;;1.90;;
12120;SDS011;6124;59.460;17.908;2023-04-01T00:56:36;5.23;;;2.07;;
12120;SDS011;6124;59.460;17.908;2023-04-01T00:59:06;3.70;;;2.03;;
12120;SDS011;6124;59.460;17.908;2023-04-01T01:01:34;1.90;;;1.63;;
12120;SDS011;6124;59.460;17.908;2023-04-01T01:04:03;3.13;;;2.07;;
12120;SDS011;6124;59.460;17.908;2023-04-01T01:06:34;3.70;;;2.00;;
12120;SDS011;6124;59.460;17.908;2023-04-01T01:09:11;2.63;;;1.63;;
12120;SDS011;6124;59.460;17.908;2023-04-01T01:11:41;2.57;;;1.90;;
12120;SDS011;6124;59.460;17.908;2023-04-01T01:14:12;4.60;;;2.07;;
12120;SDS011;6124;59.460;17.908;2023-04-01T01:16:46;2.97;;;1.90;;
12120;SDS011;6124;59.460;17.908;2023-04-01T01:19:21;2.97;;;1.80;;
12120;SDS011;6124;59.460;17.908;2023-04-01T01:24:45;3.00;;;1.90;;
12120;SDS011;6124;59.460;17.908;2023-04-01T01:27:19;3.67;;;1.87;;
12120;SDS011;6124;59.460;17.908;2023-04-01T01:35:18;3.80;;;2.07;;
12120;SDS011;6124;59.460;17.908;2023-04-01T01:37:47;4.00;;;2.00;;
12120;SDS011;6124;59.460;17.908;2023-04-01T01:40:16;3.43;;;2.10;;
12120;SDS011;6124;59.460;17.908;2023-04-01T01:42:45;5.90;;;2.10;;
12120;SDS011;6124;59.460;17.908;2023-04-01T01:45:14;3.63;;;1.97;;
12120;SDS011;6124;59.460;17.908;2023-04-01T01:47:43;3.53;;;1.90;;
12120;SDS011;6124;59.460;17.908;2023-04-01T01:50:12;3.00;;;1.80;;
12120;SDS011;6124;59.460;17.908;2023-04-01T01:52:41;3.07;;;1.63;;
12120;SDS011;6124;59.460;17.908;2023-04-01T01:55:23;4.63;;;1.90;;
12120;SDS011;6124;59.460;17.908;2023-04-01T01:57:51;3.23;;;2.10;;
12120;SDS011;6124;59.460;17.908;2023-04-01T02:00:18;2.77;;;1.70;;
12120;SDS011;6124;59.460;17.908;2023-04-01T02:02:46;3.07;;;2.00;;
12120;SDS011;6124;59.460;17.908;2023-04-01T02:05:15;2.93;;;1.63;;
12120;SDS011;6124;59.460;17.908;2023-04-01T02:07:45;3.67;;;2.10;;
12120;SDS011;6124;59.460;17.908;2023-04-01T02:10:16;2.17;;;1.70;;
12120;SDS011;6124;59.460;17.908;2023-04-01T02:12:45;2.47;;;1.47;;
12120;SDS011;6124;59.460;17.908;2023-04-01T02:15:13;3.60;;;1.90;;
12120;SDS011;6124;59.460;17.908;2023-04-01T02:17:42;2.73;;;1.90;;
12120;SDS011;6124;59.460;17.908;2023-04-01T02:20:11;2.53;;;1.93;;
12120;SDS011;6124;59.460;17.908;2023-04-01T02:22:40;3.10;;;1.70;;
12120;SDS011;6124;59.460;17.908;2023-04-01T02:25:12;4.80;;;1.80;;
12120;SDS011;6124;59.460;17.908;2023-04-01T02:27:39;3.63;;;1.90;;
12120;SDS011;6124;59.460;17.908;2023-04-01T02:30:07;4.17;;;1.57;;
12120;SDS011;6124;59.460;17.908;2023-04-01T02:32:36;4.07;;;1.80;;
12120;SDS011;6124;59.460;17.908;2023-04-01T02:35:05;4.30;;;1.70;;
12120;SDS011;6124;59.460;17.908;2023-04-01T02:37:33;2.70;;;1.90;;
12120;SDS011;6124;59.460;17.908;2023-04-01T02:40:01;2.63;;;1.77;;
12120;SDS011;6124;59.460;17.908;2023-04-01T02:42:30;3.10;;;1.60;;
12120;SDS011;6124;59.460;17.908;2023-04-01T02:44:57;2.90;;;1.77;;
12120;SDS011;6124;59.460;17.908;2023-04-01T02:47:25;2.53;;;1.73;;
12120;SDS011;6124;59.460;17.908;2023-04-01T02:49:52;2.83;;;1.87;;
12120;SDS011;6124;59.460;17.908;2023-04-01T02:52:23;3.17;;;1.77;;
12120;SDS011;6124;59.460;17.908;2023-04-01T02:54:51;4.03;;;1.73;;
12120;SDS011;6124;59.460;17.908;2023-04-01T02:57:18;3.43;;;1.90;;
12120;SDS011;6124;59.460;17.908;2023-04-01T02:59:47;5.13;;;1.70;;
12120;SDS011;6124;59.460;17.908;2023-04-01T03:02:15;2.53;;;1.93;;
12120;SDS011;6124;59.460;17.908;2023-04-01T03:04:42;2.83;;;1.50;;
12120;SDS011;6124;59.460;17.908;2023-04-01T03:07:10;2.90;;;1.70;;
12120;SDS011;6124;59.460;17.908;2023-04-01T03:09:38;3.70;;;1.53;;
12120;SDS011;6124;59.460;17.908;2023-04-01T03:12:05;2.20;;;1.53;;
12120;SDS011;6124;59.460;17.908;2023-04-01T03:14:33;4.33;;;1.60;;
12120;SDS011;6124;59.460;17.908;2023-04-01T03:17:02;4.17;;;1.97;;
12120;SDS011;6124;59.460;17.908;2023-04-01T03:19:30;2.47;;;1.87;;
12120;SDS011;6124;59.460;17.908;2023-04-01T03:21:57;1.93;;;1.50;;
12120;SDS011;6124;59.460;17.908;2023-04-01T03:24:25;2.73;;;1.90;;
12120;SDS011;6124;59.460;17.908;2023-04-01T03:26:52;3.43;;;1.60;;
12120;SDS011;6124;59.460;17.908;2023-04-01T03:29:19;3.30;;;2.00;;
12120;SDS011;6124;59.460;17.908;2023-04-01T03:31:47;2.27;;;1.70;;
12120;SDS011;6124;59.460;17.908;2023-04-01T03:34:15;2.50;;;1.70;;
12120;SDS011;6124;59.460;17.908;2023-04-01T03:36:43;2.13;;;1.67;;
12120;SDS011;6124;59.460;17.908;2023-04-01T03:39:10;2.13;;;1.60;;
12120;SDS011;6124;59.460;17.908;2023-04-01T03:41:38;2.77;;;1.70;;
12120;SDS011;6124;59.460;17.908;2023-04-01T03:44:05;3.47;;;1.80;;
12120;SDS011;6124;59.460;17.908;2023-04-01T03:46:32;3.07;;;1.90;;
12120;SDS011;6124;59.460;17.908;2023-04-01T03:49:00;2.90;;;1.63;;
12120;SDS011;6124;59.460;17.908;2023-04-01T03:51:28;3.23;;;1.70;;
12120;SDS011;6124;59.460;17.908;2023-04-01T03:53:56;3.17;;;1.67;;
12120;SDS011;6124;59.460;17.908;2023-04-01T03:56:23;2.87;;;1.60;;
12120;SDS011;6124;59.460;17.908;2023-04-01T03:58:51;3.40;;;1.50;;
12120;SDS011;6124;59.460;17.908;2023-04-01T04:01:19;2.07;;;1.50;;
12120;SDS011;6124;59.460;17.908;2023-04-01T04:03:47;1.93;;;1.30;;
12120;SDS011;6124;59.460;17.908;2023-04-01T04:06:15;3.60;;;1.53;;
12120;SDS011;6124;59.460;17.908;2023-04-01T04:08:44;2.77;;;1.57;;
12120;SDS011;6124;59.460;17.908;2023-04-01T04:11:12;4.93;;;1.70;;
12120;SDS011;6124;59.460;17.908;2023-04-01T04:13:39;4.87;;;1.90;;
12120;SDS011;6124;59.460;17.908;2023-04-01T04:16:07;2.30;;;1.53;;
12120;SDS011;6124;59.460;17.908;2023-04-01T04:18:34;2.83;;;1.70;;
12120;SDS011;6124;59.460;17.908;2023-04-01T04:21:02;3.23;;;1.87;;
12120;SDS011;6124;59.460;17.908;2023-04-01T04:23:29;2.80;;;1.90;;
12120;SDS011;6124;59.460;17.908;2023-04-01T04:26:00;2.77;;;1.80;;
12120;SDS011;6124;59.460;17.908;2023-04-01T04:28:29;2.53;;;1.63;;
12120;SDS011;6124;59.460;17.908;2023-04-01T04:30:56;4.47;;;1.73;;
12120;SDS011;6124;59.460;17.908;2023-04-01T04:33:24;3.57;;;1.50;;
12120;SDS011;6124;59.460;17.908;2023-04-01T04:35:54;2.30;;;1.57;;
12120;SDS011;6124;59.460;17.908;2023-04-01T04:38:21;4.10;;;1.63;;
12120;SDS011;6124;59.460;17.908;2023-04-01T04:40:49;2.80;;;2.00;;
12120;SDS011;6124;59.460;17.908;2023-04-01T04:43:18;2.47;;;1.70;;
12120;SDS011;6124;59.460;17.908;2023-04-01T04:45:45;3.80;;;1.60;;
12120;SDS011;6124;59.460;17.908;2023-04-01T04:48:13;2.90;;;1.67;;
12120;SDS011;6124;59.460;17.908;2023-04-01T04:50:43;3.57;;;1.80;;
12120;SDS011;6124;59.460;17.908;2023-04-01T04:53:11;2.70;;;1.60;;
12120;SDS011;6124;59.460;17.908;2023-04-01T04:55:42;2.10;;;1.43;;
12120;SDS011;6124;59.460;17.908;2023-04-01T04:58:09;3.50;;;1.80;;
12120;SDS011;6124;59.460;17.908;2023-04-01T05:00:38;2.63;;;1.47;;
12120;SDS011;6124;59.460;17.908;2023-04-01T05:03:05;3.10;;;1.93;;
12120;SDS011;6124;59.460;17.908;2023-04-01T05:05:33;2.70;;;1.70;;
12120;SDS011;6124;59.460;17.908;2023-04-01T05:08:00;2.60;;;1.50;;
12120;SDS011;6124;59.460;17.908;2023-04-01T05:10:28;2.47;;;1.70;;
12120;SDS011;6124;59.460;17.908;2023-04-01T05:12:56;4.30;;;1.90;;
12120;SDS011;6124;59.460;17.908;2023-04-01T05:15:23;3.50;;;1.73;;
12120;SDS011;6124;59.460;17.908;2023-04-01T05:17:52;2.90;;;1.80;;
12120;SDS011;6124;59.460;17.908;2023-04-01T05:20:20;5.27;;;1.70;;
12120;SDS011;6124;59.460;17.908;2023-04-01T05:22:47;2.03;;;1.50;;
12120;SDS011;6124;59.460;17.908;2023-04-01T05:25:14;2.27;;;1.80;;
12120;SDS011;6124;59.460;17.908;2023-04-01T05:27:42;2.07;;;1.47;;
12120;SDS011;6124;59.460;17.908;2023-04-01T05:30:10;2.90;;;1.50;;
12120;SDS011;6124;59.460;17.908;2023-04-01T05:32:37;3.43;;;1.90;;
12120;SDS011;6124;59.460;17.908;2023-04-01T05:35:06;4.37;;;1.83;;
12120;SDS011;6124;59.460;17.908;2023-04-01T05:37:34;3.33;;;2.27;;
12120;SDS011;6124;59.460;17.908;2023-04-01T05:40:01;3.00;;;1.57;;
12120;SDS011;6124;59.460;17.908;2023-04-01T05:42:29;2.17;;;1.53;;
12120;SDS011;6124;59.460;17.908;2023-04-01T05:44:56;3.00;;;1.67;;
12120;SDS011;6124;59.460;17.908;2023-04-01T05:47:24;1.90;;;1.47;;
12120;SDS011;6124;59.460;17.908;2023-04-01T05:49:51;3.60;;;1.90;;
12120;SDS011;6124;59.460;17.908;2023-04-01T05:52:20;3.07;;;1.60;;
12120;SDS011;6124;59.460;17.908;2023-04-01T05:54:47;5.13;;;1.80;;
12120;SDS011;6124;59.460;17.908;2023-04-01T05:57:14;2.03;;;1.60;;
12120;SDS011;6124;59.460;17.908;2023-04-01T05:59:42;3.33;;;1.80;;
12120;SDS011;6124;59.460;17.908;2023-04-01T06:02:09;3.23;;;1.70;;
12120;SDS011;6124;59.460;17.908;2023-04-01T06:04:38;3.27;;;1.80;;
12120;SDS011;6124;59.460;17.908;2023-04-01T06:07:10;3.57;;;1.90;;
12120;SDS011;6124;59.460;17.908;2023-04-01T06:09:39;2.30;;;1.60;;
12120;SDS011;6124;59.460;17.908;2023-04-01T06:12:15;2.97;;;1.63;;
12120;SDS011;6124;59.460;17.908;2023-04-01T06:14:46;2.53;;;1.80;;
12120;SDS011;6124;59.460;17.908;2023-04-01T06:17:21;2.80;;;1.80;;
12120;SDS011;6124;59.460;17.908;2023-04-01T06:19:54;2.27;;;1.57;;
12120;SDS011;6124;59.460;17.908;2023-04-01T06:22:29;3.07;;;1.77;;
12120;SDS011;6124;59.460;17.908;2023-04-01T06:27:48;2.83;;;1.60;;
12120;SDS011;6124;59.460;17.908;2023-04-01T06:30:24;3.40;;;1.63;;
12120;SDS011;6124;59.460;17.908;2023-04-01T06:33:02;3.43;;;1.90;;
12120;SDS011;6124;59.460;17.908;2023-04-01T06:35:40;2.43;;;1.53;;
12120;SDS011;6124;59.460;17.908;2023-04-01T06:38:16;4.17;;;1.60;;
12120;SDS011;6124;59.460;17.908;2023-04-01T06:40:49;2.37;;;1.50;;
12120;SDS011;6124;59.460;17.908;2023-04-01T06:43:21;2.60;;;1.60;;
12120;SDS011;6124;59.460;17.908;2023-04-01T06:45:53;4.57;;;1.80;;
12120;SDS011;6124;59.460;17.908;2023-04-01T06:48:28;4.63;;;1.97;;
12120;SDS011;6124;59.460;17.908;2023-04-01T06:51:01;5.57;;;1.80;;
12120;SDS011;6124;59.460;17.908;2023-04-01T06:53:31;8.57;;;1.90;;
12120;SDS011;6124;59.460;17.908;2023-04-01T06:56:02;5.17;;;1.83;;
12120;SDS011;6124;59.460;17.908;2023-04-01T06:58:35;6.50;;;1.93;;
12120;SDS011;6124;59.460;17.908;2023-04-01T07:01:06;8.67;;;1.87;;
12120;SDS011;6124;59.460;17.908;2023-04-01T07:03:34;5.70;;;1.93;;
12120;SDS011;6124;59.460;17.908;2023-04-01T07:06:03;8.27;;;1.97;;
12120;SDS011;6124;59.460;17.908;2023-04-01T07:08:32;6.33;;;2.00;;
12120;SDS011;6124;59.460;17.908;2023-04-01T07:11:01;6.03;;;1.90;;
12120;SDS011;6124;59.460;17.908;2023-04-01T07:13:31;2.63;;;1.37;;
12120;SDS011;6124;59.460;17.908;2023-04-01T07:16:05;7.43;;;1.63;;
12120;SDS011;6124;59.460;17.908;2023-04-01T07:18:34;5.47;;;1.83;;
12120;SDS011;6124;59.460;17.908;2023-04-01T07:21:04;10.23;;;2.20;;
12120;SDS011;6124;59.460;17.908;2023-04-01T07:23:32;6.43;;;1.67;;
12120;SDS011;6124;59.460;17.908;2023-04-01T07:26:04;5.40;;;1.63;;
12120;SDS011;6124;59.460;17.908;2023-04-01T07:28:34;5.27;;;1.73;;
12120;SDS011;6124;59.460;17.908;2023-04-01T07:31:06;6.20;;;2.10;;
12120;SDS011;6124;59.460;17.908;2023-04-01T07:33:36;3.40;;;1.77;;
12120;SDS011;6124;59.460;17.908;2023-04-01T07:36:07;6.20;;;1.90;;
12120;SDS011;6124;59.460;17.908;2023-04-01T07:38:38;3.30;;;1.60;;
12120;SDS011;6124;59.460;17.908;2023-04-01T07:41:09;4.43;;;1.60;;
12120;SDS011;6124;59.460;17.908;2023-04-01T07:43:44;5.97;;;1.93;;
12120;SDS011;6124;59.460;17.908;2023-04-01T07:46:19;2.47;;;1.50;;
12120;SDS011;6124;59.460;17.908;2023-04-01T07:48:51;5.43;;;1.70;;
12120;SDS011;6124;59.460;17.908;2023-04-01T07:51:23;3.87;;;1.50;;
12120;SDS011;6124;59.460;17.908;2023-04-01T07:53:52;4.20;;;1.27;;
12120;SDS011;6124;59.460;17.908;2023-04-01T07:56:24;5.83;;;1.37;;
12120;SDS011;6124;59.460;17.908;2023-04-01T07:58:55;4.60;;;1.60;;
12120;SDS011;6124;59.460;17.908;2023-04-01T08:01:30;2.37;;;1.10;;
12120;SDS011;6124;59.460;17.908;2023-04-01T08:04:05;3.80;;;1.47;;
12120;SDS011;6124;59.460;17.908;2023-04-01T08:06:35;3.07;;;1.10;;
12120;SDS011;6124;59.460;17.908;2023-04-01T08:09:05;5.10;;;1.30;;
12120;SDS011;6124;59.460;17.908;2023-04-01T08:11:41;6.30;;;1.43;;
12120;SDS011;6124;59.460;17.908;2023-04-01T08:14:15;4.60;;;1.40;;
12120;SDS011;6124;59.460;17.908;2023-04-01T08:16:46;4.20;;;1.40;;
12120;SDS011;6124;59.460;17.908;2023-04-01T08:19:19;5.43;;;1.30;;
12120;SDS011;6124;59.460;17.908;2023-04-01T08:21:49;2.87;;;1.30;;
12120;SDS011;6124;59.460;17.908;2023-04-01T08:24:22;5.50;;;1.33;;
12120;SDS011;6124;59.460;17.908;2023-04-01T08:26:53;3.93;;;1.20;;
12120;SDS011;6124;59.460;17.908;2023-04-01T08:29:22;5.23;;;1.40;;
12120;SDS011;6124;59.460;17.908;2023-04-01T08:31:53;3.70;;;1.40;;
12120;SDS011;6124;59.460;17.908;2023-04-01T08:34:23;2.10;;;1.10;;
12120;SDS011;6124;59.460;17.908;2023-04-01T08:36:51;5.43;;;1.80;;
12120;SDS011;6124;59.460;17.908;2023-04-01T08:39:21;8.70;;;1.60;;
12120;SDS011;6124;59.460;17.908;2023-04-01T08:41:59;1.93;;;1.20;;
12120;SDS011;6124;59.460;17.908;2023-04-01T08:47:22;6.80;;;1.40;;
12120;SDS011;6124;59.460;17.908;2023-04-01T08:52:49;2.10;;;1.40;;
12120;SDS011;6124;59.460;17.908;2023-04-01T08:58:18;3.53;;;1.10;;
12120;SDS011;6124;59.460;17.908;2023-04-01T09:00:49;7.87;;;1.37;;
12120;SDS011;6124;59.460;17.908;2023-04-01T09:09:11;1.90;;;1.10;;
12120;SDS011;6124;59.460;17.908;2023-04-01T09:11:52;24.03;;;2.90;;
12120;SDS011;6124;59.460;17.908;2023-04-01T09:14:29;13.07;;;1.40;;
12120;SDS011;6124;59.460;17.908;2023-04-01T09:17:08;7.73;;;1.50;;
12120;SDS011;6124;59.460;17.908;2023-04-01T09:19:47;2.80;;;0.97;;
12120;SDS011;6124;59.460;17.908;2023-04-01T09:22:25;5.80;;;1.10;;
12120;SDS011;6124;59.460;17.908;2023-04-01T09:27:45;2.77;;;0.83;;
12120;SDS011;6124;59.460;17.908;2023-04-01T09:30:36;2.60;;;1.00;;
12120;SDS011;6124;59.460;17.908;2023-04-01T09:36:05;2.43;;;1.03;;
12120;SDS011;6124;59.460;17.908;2023-04-01T09:38:38;3.37;;;1.00;;
12120;SDS011;6124;59.460;17.908;2023-04-01T09:41:11;3.77;;;1.10;;
12120;SDS011;6124;59.460;17.908;2023-04-01T09:43:53;1.67;;;1.10;;
12120;SDS011;6124;59.460;17.908;2023-04-01T09:46:27;4.50;;;1.10;;
12120;SDS011;6124;59.460;17.908;2023-04-01T09:51:59;3.70;;;1.00;;
12120;SDS011;6124;59.460;17.908;2023-04-01T09:54:32;4.77;;;1.10;;
12120;SDS011;6124;59.460;17.908;2023-04-01T10:00:10;2.73;;;0.93;;
12120;SDS011;6124;59.460;17.908;2023-04-01T10:02:51;3.97;;;0.90;;
12120;SDS011;6124;59.460;17.908;2023-04-01T10:08:33;8.07;;;1.47;;
12120;SDS011;6124;59.460;17.908;2023-04-01T10:11:08;5.07;;;1.30;;
12120;SDS011;6124;59.460;17.908;2023-04-01T10:13:46;1.60;;;1.10;;
12120;SDS011;6124;59.460;17.908;2023-04-01T10:16:22;10.90;;;1.20;;
12120;SDS011;6124;59.460;17.908;2023-04-01T10:18:56;5.37;;;0.90;;
12120;SDS011;6124;59.460;17.908;2023-04-01T10:24:25;3.13;;;0.90;;
12120;SDS011;6124;59.460;17.908;2023-04-01T10:29:49;8.03;;;1.53;;
12120;SDS011;6124;59.460;17.908;2023-04-01T10:35:10;2.70;;;1.00;;
12120;SDS011;6124;59.460;17.908;2023-04-01T10:40:38;4.93;;;1.00;;
12120;SDS011;6124;59.460;17.908;2023-04-01T10:43:22;2.20;;;0.73;;
12120;SDS011;6124;59.460;17.908;2023-04-01T10:46:16;3.47;;;1.00;;
12120;SDS011;6124;59.460;17.908;2023-04-01T10:52:06;4.73;;;1.00;;
12120;SDS011;6124;59.460;17.908;2023-04-01T10:54:45;4.33;;;0.90;;
12120;SDS011;6124;59.460;17.908;2023-04-01T10:57:22;2.10;;;0.70;;
12120;SDS011;6124;59.460;17.908;2023-04-01T11:08:33;4.57;;;1.00;;
12120;SDS011;6124;59.460;17.908;2023-04-01T11:14:11;4.00;;;0.70;;
12120;SDS011;6124;59.460;17.908;2023-04-01T11:16:54;2.20;;;1.00;;
12120;SDS011;6124;59.460;17.908;2023-04-01T11:25:17;2.57;;;1.20;;
12120;SDS011;6124;59.460;17.908;2023-04-01T11:27:51;3.20;;;0.90;;
12120;SDS011;6124;59.460;17.908;2023-04-01T11:30:29;2.80;;;0.67;;
12120;SDS011;6124;59.460;17.908;2023-04-01T11:33:01;4.10;;;0.77;;
12120;SDS011;6124;59.460;17.908;2023-04-01T11:35:35;4.23;;;1.00;;
12120;SDS011;6124;59.460;17.908;2023-04-01T11:38:07;4.17;;;0.70;;
12120;SDS011;6124;59.460;17.908;2023-04-01T11:40:41;5.00;;;1.03;;
12120;SDS011;6124;59.460;17.908;2023-04-01T11:43:12;4.20;;;0.80;;
12120;SDS011;6124;59.460;17.908;2023-04-01T11:45:43;2.50;;;0.60;;
12120;SDS011;6124;59.460;17.908;2023-04-01T11:48:15;9.47;;;1.20;;
12120;SDS011;6124;59.460;17.908;2023-04-01T11:50:52;7.37;;;1.30;;
12120;SDS011;6124;59.460;17.908;2023-04-01T11:53:26;3.43;;;0.70;;
12120;SDS011;6124;59.460;17.908;2023-04-01T11:55:59;2.23;;;0.60;;
12120;SDS011;6124;59.460;17.908;2023-04-01T11:58:36;1.50;;;0.70;;
12120;SDS011;6124;59.460;17.908;2023-04-01T12:01:10;1.80;;;0.40;;
12120;SDS011;6124;59.460;17.908;2023-04-01T12:03:51;5.43;;;0.67;;
12120;SDS011;6124;59.460;17.908;2023-04-01T12:06:22;1.17;;;0.60;;
12120;SDS011;6124;59.460;17.908;2023-04-01T12:08:54;1.37;;;0.50;;
12120;SDS011;6124;59.460;17.908;2023-04-01T12:11:28;2.60;;;0.80;;
12120;SDS011;6124;59.460;17.908;2023-04-01T12:14:02;2.80;;;0.70;;
12120;SDS011;6124;59.460;17.908;2023-04-01T12:16:38;4.70;;;0.70;;
12120;SDS011;6124;59.460;17.908;2023-04-01T12:19:09;1.37;;;0.60;;
12120;SDS011;6124;59.460;17.908;2023-04-01T12:21:42;0.97;;;0.50;;
12120;SDS011;6124;59.460;17.908;2023-04-01T12:27:12;2.57;;;0.97;;
12120;SDS011;6124;59.460;17.908;2023-04-01T12:29:54;3.57;;;0.77;;
12120;SDS011;6124;59.460;17.908;2023-04-01T12:32:31;2.53;;;0.90;;
12120;SDS011;6124;59.460;17.908;2023-04-01T12:35:11;3.67;;;0.90;;
12120;SDS011;6124;59.460;17.908;2023-04-01T12:37:45;2.70;;;0.80;;
12120;SDS011;6124;59.460;17.908;2023-04-01T12:40:20;3.73;;;0.77;;
12120;SDS011;6124;59.460;17.908;2023-04-01T12:42:55;3.07;;;0.90;;
12120;SDS011;6124;59.460;17.908;2023-04-01T12:45:28;3.43;;;0.70;;
12120;SDS011;6124;59.460;17.908;2023-04-01T12:48:03;1.37;;;0.60;;
12120;SDS011;6124;59.460;17.908;2023-04-01T12:53:22;3.77;;;0.87;;
12120;SDS011;6124;59.460;17.908;2023-04-01T12:55:54;6.37;;;1.50;;
12120;SDS011;6124;59.460;17.908;2023-04-01T12:58:47;0.33;;;0.30;;
12120;SDS011;6124;59.460;17.908;2023-04-01T13:01:35;2.37;;;0.60;;
12120;SDS011;6124;59.460;17.908;2023-04-01T13:07:07;1.30;;;0.87;;
12120;SDS011;6124;59.460;17.908;2023-04-01T13:09:38;4.17;;;0.77;;
12120;SDS011;6124;59.460;17.908;2023-04-01T13:12:17;5.53;;;0.90;;
12120;SDS011;6124;59.460;17.908;2023-04-01T13:14:53;1.20;;;0.63;;
12120;SDS011;6124;59.460;17.908;2023-04-01T13:17:27;3.03;;;0.90;;
12120;SDS011;6124;59.460;17.908;2023-04-01T13:19:56;3.73;;;0.80;;
12120;SDS011;6124;59.460;17.908;2023-04-01T13:22:28;2.43;;;0.87;;
12120;SDS011;6124;59.460;17.908;2023-04-01T13:24:59;1.50;;;0.70;;
12120;SDS011;6124;59.460;17.908;2023-04-01T13:27:29;2.37;;;0.80;;
12120;SDS011;6124;59.460;17.908;2023-04-01T13:30:02;3.83;;;0.90;;
12120;SDS011;6124;59.460;17.908;2023-04-01T13:32:33;3.93;;;0.90;;
12120;SDS011;6124;59.460;17.908;2023-04-01T13:35:06;2.67;;;0.80;;
12120;SDS011;6124;59.460;17.908;2023-04-01T13:37:41;3.10;;;0.83;;
12120;SDS011;6124;59.460;17.908;2023-04-01T13:42:57;2.57;;;0.80;;
12120;SDS011;6124;59.460;17.908;2023-04-01T13:45:29;5.03;;;0.83;;
12120;SDS011;6124;59.460;17.908;2023-04-01T13:48:19;4.47;;;0.90;;
12120;SDS011;6124;59.460;17.908;2023-04-01T13:53:41;3.03;;;0.70;;
12120;SDS011;6124;59.460;17.908;2023-04-01T13:56:15;1.43;;;0.60;;
12120;SDS011;6124;59.460;17.908;2023-04-01T14:01:32;3.13;;;0.80;;
12120;SDS011;6124;59.460;17.908;2023-04-01T14:04:03;6.10;;;1.17;;
12120;SDS011;6124;59.460;17.908;2023-04-01T14:06:38;15.67;;;1.90;;
12120;SDS011;6124;59.460;17.908;2023-04-01T14:09:13;1.60;;;0.80;;
12120;SDS011;6124;59.460;17.908;2023-04-01T14:11:45;3.07;;;0.70;;
12120;SDS011;6124;59.460;17.908;2023-04-01T14:14:17;2.70;;;0.90;;
12120;SDS011;6124;59.460;17.908;2023-04-01T14:22:21;7.60;;;0.90;;
12120;SDS011;6124;59.460;17.908;2023-04-01T14:24:58;6.03;;;1.00;;
12120;SDS011;6124;59.460;17.908;2023-04-01T14:27:41;2.60;;;0.70;;
12120;SDS011;6124;59.460;17.908;2023-04-01T14:30:17;2.23;;;0.80;;
12120;SDS011;6124;59.460;17.908;2023-04-01T14:32:49;1.40;;;0.60;;
12120;SDS011;6124;59.460;17.908;2023-04-01T14:35:25;1.70;;;0.67;;
12120;SDS011;6124;59.460;17.908;2023-04-01T14:38:00;3.27;;;0.63;;
12120;SDS011;6124;59.460;17.908;2023-04-01T14:40:33;3.07;;;0.93;;
12120;SDS011;6124;59.460;17.908;2023-04-01T14:43:14;2.50;;;0.77;;
12120;SDS011;6124;59.460;17.908;2023-04-01T14:45:55;1.97;;;0.80;;
12120;SDS011;6124;59.460;17.908;2023-04-01T14:48:28;1.47;;;0.60;;
12120;SDS011;6124;59.460;17.908;2023-04-01T14:51:02;2.67;;;0.70;;
12120;SDS011;6124;59.460;17.908;2023-04-01T14:53:33;1.33;;;0.67;;
12120;SDS011;6124;59.460;17.908;2023-04-01T14:56:03;2.60;;;0.73;;
12120;SDS011;6124;59.460;17.908;2023-04-01T14:58:39;4.17;;;1.03;;
12120;SDS011;6124;59.460;17.908;2023-04-01T15:01:11;3.63;;;0.83;;
12120;SDS011;6124;59.460;17.908;2023-04-01T15:03:40;3.07;;;0.97;;
12120;SDS011;6124;59.460;17.908;2023-04-01T15:09:17;2.77;;;0.97;;
12120;SDS011;6124;59.460;17.908;2023-04-01T15:11:53;4.63;;;1.10;;
12120;SDS011;6124;59.460;17.908;2023-04-01T15:14:26;3.70;;;1.10;;
12120;SDS011;6124;59.460;17.908;2023-04-01T15:17:00;3.40;;;0.90;;
12120;SDS011;6124;59.460;17.908;2023-04-01T15:19:34;3.63;;;0.90;;
12120;SDS011;6124;59.460;17.908;2023-04-01T15:22:06;2.97;;;1.07;;
12120;SDS011;6124;59.460;17.908;2023-04-01T15:24:41;3.60;;;1.00;;
12120;SDS011;6124;59.460;17.908;2023-04-01T15:27:14;3.60;;;0.93;;
12120;SDS011;6124;59.460;17.908;2023-04-01T15:29:46;5.20;;;1.20;;
12120;SDS011;6124;59.460;17.908;2023-04-01T15:32:19;3.13;;;1.20;;
12120;SDS011;6124;59.460;17.908;2023-04-01T15:34:50;6.43;;;1.10;;
12120;SDS011;6124;59.460;17.908;2023-04-01T15:37:22;6.20;;;1.20;;
12120;SDS011;6124;59.460;17.908;2023-04-01T15:39:56;4.67;;;1.40;;
12120;SDS011;6124;59.460;17.908;2023-04-01T15:42:39;1.73;;;0.73;;
12120;SDS011;6124;59.460;17.908;2023-04-01T15:45:12;2.60;;;1.00;;
12120;SDS011;6124;59.460;17.908;2023-04-01T15:47:44;1.60;;;0.87;;
12120;SDS011;6124;59.460;17.908;2023-04-01T15:53:03;3.57;;;0.80;;
12120;SDS011;6124;59.460;17.908;2023-04-01T15:55:38;2.90;;;0.80;;
12120;SDS011;6124;59.460;17.908;2023-04-01T16:00:58;3.53;;;0.90;;
12120;SDS011;6124;59.460;17.908;2023-04-01T16:03:31;4.27;;;0.73;;
12120;SDS011;6124;59.460;17.908;2023-04-01T16:06:10;2.87;;;0.90;;
12120;SDS011;6124;59.460;17.908;2023-04-01T16:11:27;3.30;;;0.90;;
12120;SDS011;6124;59.460;17.908;2023-04-01T16:13:59;4.70;;;1.17;;
12120;SDS011;6124;59.460;17.908;2023-04-01T16:16:38;4.17;;;1.20;;
12120;SDS011;6124;59.460;17.908;2023-04-01T16:19:18;8.63;;;1.47;;
12120;SDS011;6124;59.460;17.908;2023-04-01T16:21:50;3.87;;;1.00;;
12120;SDS011;6124;59.460;17.908;2023-04-01T16:24:22;3.37;;;1.13;;
12120;SDS011;6124;59.460;17.908;2023-04-01T16:26:54;2.13;;;1.03;;
12120;SDS011;6124;59.460;17.908;2023-04-01T16:29:27;2.87;;;1.33;;
12120;SDS011;6124;59.460;17.908;2023-04-01T16:31:59;2.13;;;0.90;;
12120;SDS011;6124;59.460;17.908;2023-04-01T16:34:29;4.23;;;1.43;;
12120;SDS011;6124;59.460;17.908;2023-04-01T16:37:00;2.87;;;1.40;;
12120;SDS011;6124;59.460;17.908;2023-04-01T16:39:32;4.33;;;1.30;;
12120;SDS011;6124;59.460;17.908;2023-04-01T16:42:16;3.33;;;0.93;;
12120;SDS011;6124;59.460;17.908;2023-04-01T16:44:48;4.87;;;1.40;;
12120;SDS011;6124;59.460;17.908;2023-04-01T16:47:17;4.20;;;1.30;;
12120;SDS011;6124;59.460;17.908;2023-04-01T16:49:46;3.60;;;1.00;;
12120;SDS011;6124;59.460;17.908;2023-04-01T16:52:16;5.27;;;1.40;;
12120;SDS011;6124;59.460;17.908;2023-04-01T16:54:48;6.70;;;1.50;;
12120;SDS011;6124;59.460;17.908;2023-04-01T16:57:19;3.87;;;1.20;;
12120;SDS011;6124;59.460;17.908;2023-04-01T16:59:54;3.47;;;1.20;;
12120;SDS011;6124;59.460;17.908;2023-04-01T17:02:24;4.73;;;1.40;;